Time;durP1;ratioP1;P1;durP2;ratioP2;P2;SDS_P1;SDS_P2;PMS_P1;PMS_P2;Temp;Humidity;BMP_temperature;BMP_pressure;BME280_temperature;BME280_humidity;BME280_pressure;Samples;Min_cycle;Max_cycle;Signal;HPM_P1;HPM_P2
2022/08/08 00:00:11;;;;;;;1.23;0.87;;;20.90;50.20;;;;;;5061343;28;20533;-70
2022/08/08 00:02:40;;;;;;;3.17;1.30;;;20.90;50.40;;;;;;5058220;28;20453;-69
2022/08/08 00:05:18;;;;;;;1.27;1.13;;;20.90;50.30;;;;;;5041077;28;20466;-69
2022/08/08 00:08:28;;;;;;;6.10;1.60;;;20.90;50.50;;;;;;5056901;28;20207;-69
2022/08/08 00:11:19;;;;;;;1.30;1.20;;;20.80;50.50;;;;;;5000616;28;20442;-70
2022/08/08 00:13:54;;;;;;;1.00;1.00;;;20.80;50.60;;;;;;5055539;28;20852;-69
2022/08/08 00:16:40;;;;;;;1.10;1.00;;;20.70;50.50;;;;;;5065488;28;20441;-69
2022/08/08 00:19:26;;;;;;;1.27;1.17;;;20.70;50.70;;;;;;5051011;28;20449;-69
2022/08/08 00:22:01;;;;;;;1.43;1.07;;;20.70;50.50;;;;;;5031220;28;20469;-69
2022/08/08 00:24:39;;;;;;;0.87;0.87;;;20.80;50.60;;;;;;5066493;28;20448;-69
2022/08/08 00:27:08;;;;;;;1.20;1.20;;;20.90;50.60;;;;;;5070561;28;20472;-70
2022/08/08 00:29:52;;;;;;;1.40;1.30;;;20.90;50.50;;;;;;5061284;28;20448;-69
2022/08/08 00:32:33;;;;;;;1.00;1.00;;;20.90;50.50;;;;;;5037448;28;20519;-69
2022/08/08 00:35:23;;;;;;;1.33;1.23;;;20.90;50.40;;;;;;5049159;28;20456;-69
2022/08/08 00:38:06;;;;;;;1.10;1.10;;;20.90;50.40;;;;;;5032075;28;20540;-69
2022/08/08 00:40:46;;;;;;;1.17;1.17;;;20.90;50.40;;;;;;5058647;28;20961;-71
2022/08/08 00:43:30;;;;;;;1.07;1.07;;;20.80;50.30;;;;;;5042573;28;20460;-70
2022/08/08 00:46:29;;;;;;;1.10;1.00;;;20.80;50.40;;;;;;5055783;28;20871;-70
2022/08/08 00:49:32;;;;;;;1.40;1.30;;;20.80;50.40;;;;;;5078762;28;20485;-70
2022/08/08 00:52:23;;;;;;;1.20;1.20;;;20.80;50.50;;;;;;5050036;28;20461;-68
2022/08/08 00:55:16;;;;;;;1.70;1.10;;;20.70;50.60;;;;;;5031012;28;20445;-69
2022/08/08 00:58:09;;;;;;;1.23;1.13;;;20.70;50.80;;;;;;5031922;28;20909;-69
2022/08/08 01:00:57;;;;;;;1.33;1.23;;;20.70;50.90;;;;;;5053283;28;20488;-69
2022/08/08 01:03:48;;;;;;;0.87;0.87;;;20.70;50.60;;;;;;5047972;28;20833;-69
2022/08/08 01:06:55;;;;;;;1.10;1.10;;;20.60;51.00;;;;;;5034330;28;20548;-69
2022/08/08 01:09:46;;;;;;;1.40;1.30;;;20.60;50.90;;;;;;5024360;28;20930;-69
2022/08/08 01:12:36;;;;;;;1.20;1.20;;;20.60;50.80;;;;;;5052834;28;20453;-69
2022/08/08 01:15:36;;;;;;;0.90;0.90;;;20.60;50.90;;;;;;5048179;28;20441;-69
2022/08/08 01:18:25;;;;;;;4.30;1.30;;;20.60;50.80;;;;;;5035927;28;20865;-69
2022/08/08 01:21:18;;;;;;;1.20;1.20;;;20.60;50.80;;;;;;5033669;28;20512;-69
2022/08/08 01:24:07;;;;;;;1.83;1.17;;;20.60;50.70;;;;;;5043356;28;20449;-69
2022/08/08 01:27:05;;;;;;;3.53;1.10;;;20.60;50.70;;;;;;5008473;28;20584;-69
2022/08/08 01:29:58;;;;;;;2.00;1.37;;;20.50;50.60;;;;;;5060963;28;20445;-69
2022/08/08 01:33:26;;;;;;;1.60;1.50;;;20.50;50.80;;;;;;5052114;28;20468;-69
2022/08/08 01:36:14;;;;;;;1.30;1.23;;;20.40;50.80;;;;;;5030371;28;20464;-69
2022/08/08 01:39:18;;;;;;;1.30;1.20;;;20.40;50.80;;;;;;5053426;28;20433;-69
2022/08/08 01:41:49;;;;;;;1.17;1.07;;;20.30;50.90;;;;;;5032129;28;20446;-69
2022/08/08 01:44:23;;;;;;;1.20;1.20;;;20.30;50.90;;;;;;5052462;28;20446;-69
2022/08/08 01:46:53;;;;;;;1.40;1.30;;;20.20;51.00;;;;;;5033935;28;20481;-69
2022/08/08 01:50:00;;;;;;;1.20;1.20;;;20.20;51.10;;;;;;5031791;28;20557;-69
2022/08/08 01:52:45;;;;;;;1.30;1.20;;;20.20;51.20;;;;;;5050907;28;20452;-68
2022/08/08 01:55:15;;;;;;;1.23;1.13;;;20.10;51.10;;;;;;5025653;28;20548;-69
2022/08/08 01:57:59;;;;;;;1.40;1.30;;;20.10;51.20;;;;;;5036719;28;20537;-69
2022/08/08 02:00:42;;;;;;;1.07;1.07;;;20.10;51.00;;;;;;5048878;28;20454;-69
2022/08/08 02:03:30;;;;;;;3.40;1.10;;;20.20;50.90;;;;;;5032366;28;20499;-69
2022/08/08 02:06:16;;;;;;;1.50;1.40;;;20.20;50.90;;;;;;5045578;28;20473;-69
2022/08/08 02:08:42;;;;;;;1.17;1.17;;;20.20;50.90;;;;;;5036411;28;20529;-69
2022/08/08 02:11:57;;;;;;;1.17;1.17;;;20.20;50.90;;;;;;5052984;28;20595;-69
2022/08/08 02:14:39;;;;;;;1.47;1.37;;;20.20;50.90;;;;;;4983340;28;20453;-69
2022/08/08 02:17:19;;;;;;;1.30;1.00;;;20.20;50.80;;;;;;5032382;28;20450;-69
2022/08/08 02:19:59;;;;;;;1.40;1.30;;;20.20;50.80;;;;;;5035295;28;20541;-69
2022/08/08 02:22:31;;;;;;;1.00;1.00;;;20.10;50.70;;;;;;5069519;28;20485;-69
2022/08/08 02:25:02;;;;;;;1.10;1.10;;;20.10;50.80;;;;;;5016280;28;20455;-69
2022/08/08 02:27:40;;;;;;;1.10;1.10;;;20.10;50.80;;;;;;5036043;28;20488;-68
2022/08/08 02:30:20;;;;;;;1.50;1.40;;;20.10;50.80;;;;;;5045578;28;20446;-69
2022/08/08 02:32:59;;;;;;;2.60;1.20;;;20.10;50.80;;;;;;5058409;28;20441;-69
2022/08/08 02:35:28;;;;;;;1.30;1.20;;;20.00;50.80;;;;;;5047403;28;20921;-69
2022/08/08 02:38:19;;;;;;;1.43;1.30;;;20.00;50.80;;;;;;5049918;28;20533;-69
2022/08/08 02:41:22;;;;;;;1.20;1.20;;;20.00;50.80;;;;;;5076726;28;20449;-69
2022/08/08 02:43:48;;;;;;;1.33;1.23;;;20.00;50.90;;;;;;5054408;28;20475;-69
2022/08/08 02:46:45;;;;;;;1.43;1.33;;;20.00;50.80;;;;;;5034849;28;20489;-69
2022/08/08 02:49:32;;;;;;;1.73;1.00;;;20.00;50.80;;;;;;5068512;28;20453;-69
2022/08/08 02:52:27;;;;;;;1.27;1.23;;;20.00;50.90;;;;;;5033231;28;20465;-69
2022/08/08 02:55:20;;;;;;;1.37;1.27;;;19.90;50.90;;;;;;5035766;28;20449;-68
2022/08/08 02:58:05;;;;;;;1.03;1.03;;;19.90;51.00;;;;;;5056644;28;20457;-69
2022/08/08 03:01:01;;;;;;;1.13;1.10;;;19.80;50.80;;;;;;5028666;28;20442;-69
2022/08/08 03:03:52;;;;;;;1.13;1.13;;;19.80;50.90;;;;;;5035247;28;20442;-70
2022/08/08 03:07:01;;;;;;;1.10;1.10;;;19.80;51.00;;;;;;5052906;28;20471;-69
2022/08/08 03:09:48;;;;;;;1.37;1.27;;;19.80;51.00;;;;;;5062658;28;20460;-69
2022/08/08 03:12:33;;;;;;;1.30;1.20;;;19.80;51.00;;;;;;5026818;28;20485;-69
2022/08/08 03:15:36;;;;;;;1.00;1.00;;;19.80;51.00;;;;;;5044989;28;20446;-69
2022/08/08 03:18:15;;;;;;;1.10;1.10;;;19.80;51.10;;;;;;5068990;28;20487;-69
2022/08/08 03:20:46;;;;;;;2.40;1.23;;;19.80;51.20;;;;;;5028274;28;20449;-69
2022/08/08 03:23:13;;;;;;;1.40;1.30;;;19.80;51.10;;;;;;5049416;28;20829;-69
2022/08/08 03:25:41;;;;;;;4.23;1.27;;;19.70;51.10;;;;;;5077292;28;20459;-69
2022/08/08 03:28:20;;;;;;;1.10;1.10;;;19.70;51.10;;;;;;5052329;28;20453;-69
2022/08/08 03:30:47;;;;;;;1.30;1.20;;;19.70;51.10;;;;;;5058223;28;20871;-69
2022/08/08 03:33:19;;;;;;;1.50;1.40;;;19.70;51.20;;;;;;5050226;28;20519;-70
2022/08/08 03:35:50;;;;;;;0.90;0.90;;;19.70;51.20;;;;;;5048922;28;20456;-69
2022/08/08 03:38:22;;;;;;;1.50;1.40;;;19.70;51.20;;;;;;5032418;28;20458;-69
2022/08/08 03:40:52;;;;;;;1.43;1.27;;;19.60;51.20;;;;;;5036106;28;20511;-69
2022/08/08 03:43:19;;;;;;;1.40;1.30;;;19.60;51.20;;;;;;5045159;28;20488;-68
2022/08/08 03:45:46;;;;;;;1.27;1.17;;;19.60;51.30;;;;;;5034750;28;20465;-69
2022/08/08 03:48:12;;;;;;;1.37;1.27;;;19.60;51.20;;;;;;5048789;28;20487;-68
2022/08/08 03:50:46;;;;;;;1.10;1.00;;;19.60;51.40;;;;;;5019094;28;20470;-69
2022/08/08 03:53:18;;;;;;;1.50;1.40;;;19.60;51.40;;;;;;5040492;28;20972;-69
2022/08/08 03:55:48;;;;;;;1.30;1.30;;;19.50;51.40;;;;;;5034427;28;20473;-69
2022/08/08 03:58:22;;;;;;;1.40;1.30;;;19.50;51.80;;;;;;5037664;28;20450;-69
2022/08/08 04:00:55;;;;;;;1.47;1.37;;;19.40;51.80;;;;;;5018732;28;20460;-69
2022/08/08 04:03:23;;;;;;;1.43;1.33;;;19.30;51.90;;;;;;5081504;28;20492;-69
2022/08/08 04:05:50;;;;;;;1.30;1.30;;;19.30;51.90;;;;;;5034968;28;20454;-69
2022/08/08 04:08:17;;;;;;;1.40;1.30;;;19.30;51.80;;;;;;5051096;28;20536;-69
2022/08/08 04:10:47;;;;;;;1.40;1.30;;;19.30;51.90;;;;;;5031843;28;20461;-69
2022/08/08 04:13:14;;;;;;;1.67;1.57;;;19.30;51.80;;;;;;5049193;28;20452;-69
2022/08/08 04:15:41;;;;;;;1.67;1.37;;;19.30;51.80;;;;;;5050894;28;20445;-69
2022/08/08 04:18:08;;;;;;;1.67;1.57;;;19.30;52.00;;;;;;5051762;28;20965;-70
2022/08/08 04:20:35;;;;;;;1.17;1.17;;;19.20;52.00;;;;;;5056172;28;20454;-69
2022/08/08 04:23:00;;;;;;;1.27;1.13;;;19.20;52.10;;;;;;5027449;28;20454;-70
2022/08/08 04:25:27;;;;;;;2.40;1.20;;;19.20;51.80;;;;;;5037258;28;20313;-69
2022/08/08 04:27:53;;;;;;;2.30;1.40;;;19.20;52.40;;;;;;5040080;28;20501;-69
2022/08/08 04:30:19;;;;;;;4.30;1.30;;;19.20;51.90;;;;;;5050055;28;20684;-68
2022/08/08 04:32:49;;;;;;;1.37;1.27;;;19.20;51.90;;;;;;5037820;28;20528;-67
2022/08/08 04:35:15;;;;;;;2.40;0.93;;;19.20;51.90;;;;;;5034268;28;20451;-69
2022/08/08 04:37:42;;;;;;;1.50;1.40;;;19.20;51.90;;;;;;5038236;28;20446;-68
2022/08/08 04:40:14;;;;;;;1.40;1.30;;;19.20;51.90;;;;;;5039228;28;20525;-69
2022/08/08 04:42:46;;;;;;;1.37;1.27;;;19.20;51.90;;;;;;5054695;28;20870;-69
2022/08/08 04:45:13;;;;;;;1.10;1.10;;;19.20;52.00;;;;;;5054398;28;20450;-69
2022/08/08 04:47:39;;;;;;;1.50;1.40;;;19.20;51.90;;;;;;5055106;28;20442;-70
2022/08/08 04:50:05;;;;;;;1.20;1.20;;;19.20;51.90;;;;;;5052702;28;20445;-69
2022/08/08 04:52:34;;;;;;;2.20;1.53;;;19.20;52.00;;;;;;5035521;28;20520;-69
2022/08/08 04:55:02;;;;;;;2.50;1.60;;;19.20;51.90;;;;;;5053644;28;20495;-69
2022/08/08 04:57:27;;;;;;;1.47;1.40;;;19.20;52.00;;;;;;5051404;28;21030;-69
2022/08/08 04:59:53;;;;;;;3.30;1.53;;;19.20;52.00;;;;;;5087641;28;20473;-68
2022/08/08 05:02:19;;;;;;;1.90;1.77;;;19.20;52.20;;;;;;5028161;28;20220;-69
2022/08/08 05:04:45;;;;;;;1.53;1.43;;;19.20;52.30;;;;;;5037906;28;20679;-69
2022/08/08 05:07:11;;;;;;;1.30;1.20;;;19.20;52.40;;;;;;5050801;28;20236;-69
2022/08/08 05:09:37;;;;;;;1.47;1.37;;;19.20;52.40;;;;;;5022077;28;20449;-69
2022/08/08 05:12:03;;;;;;;1.40;1.30;;;19.10;52.40;;;;;;5033517;28;20443;-69
2022/08/08 05:14:30;;;;;;;1.57;1.47;;;19.10;52.50;;;;;;5053167;28;20679;-69
2022/08/08 05:16:59;;;;;;;1.40;1.30;;;19.10;52.90;;;;;;5038244;28;20956;-69
2022/08/08 05:19:25;;;;;;;1.70;1.50;;;19.10;52.70;;;;;;5052149;28;20993;-68
2022/08/08 05:21:54;;;;;;;1.17;1.13;;;19.20;52.80;;;;;;5036740;28;20553;-69
2022/08/08 05:24:21;;;;;;;1.47;1.37;;;19.10;52.60;;;;;;5051213;28;20212;-68
2022/08/08 05:26:47;;;;;;;2.13;1.60;;;19.10;52.90;;;;;;5053267;28;20454;-69
2022/08/08 05:29:13;;;;;;;1.27;1.17;;;19.10;53.00;;;;;;5046527;28;20537;-69
2022/08/08 05:31:39;;;;;;;1.57;1.47;;;19.20;53.50;;;;;;5037052;28;20931;-69
2022/08/08 05:34:10;;;;;;;1.60;1.50;;;19.20;53.60;;;;;;5052570;28;20298;-68
2022/08/08 05:36:37;;;;;;;3.80;1.73;;;19.20;53.50;;;;;;5066427;28;20222;-69
2022/08/08 05:39:04;;;;;;;1.40;1.30;;;19.20;53.70;;;;;;5036832;28;20549;-69
2022/08/08 05:41:34;;;;;;;1.37;1.30;;;19.20;54.20;;;;;;5041425;28;20832;-70
2022/08/08 05:44:11;;;;;;;1.50;1.40;;;19.20;54.00;;;;;;5041390;28;20478;-70
2022/08/08 05:46:37;;;;;;;1.37;1.20;;;19.30;54.30;;;;;;5052222;28;20457;-69
2022/08/08 05:49:03;;;;;;;1.60;1.50;;;19.30;54.40;;;;;;5053172;28;20510;-68
2022/08/08 05:51:29;;;;;;;3.13;1.63;;;19.30;54.50;;;;;;5052888;28;20461;-69
2022/08/08 05:53:56;;;;;;;1.40;1.30;;;19.30;54.00;;;;;;5052244;28;20691;-68
2022/08/08 05:56:22;;;;;;;1.57;1.27;;;19.30;54.30;;;;;;5034743;28;20450;-69
2022/08/08 05:58:59;;;;;;;1.57;1.30;;;19.30;54.20;;;;;;5037486;28;20226;-69
2022/08/08 06:01:27;;;;;;;1.50;1.40;;;19.30;54.40;;;;;;5026497;28;20467;-69
2022/08/08 06:04:00;;;;;;;1.40;1.30;;;19.30;54.30;;;;;;5032818;28;20468;-69
2022/08/08 06:06:28;;;;;;;1.40;1.07;;;19.30;54.00;;;;;;5033522;28;20554;-70
2022/08/08 06:08:57;;;;;;;1.37;1.20;;;19.40;54.30;;;;;;5042414;28;20446;-69
2022/08/08 06:11:24;;;;;;;5.47;1.37;;;19.40;54.20;;;;;;5035199;28;20454;-69
2022/08/08 06:13:50;;;;;;;1.43;1.20;;;19.50;54.50;;;;;;5027791;28;20445;-69
2022/08/08 06:16:20;;;;;;;2.10;1.40;;;19.50;54.20;;;;;;5061398;28;20456;-69
2022/08/08 06:19:00;;;;;;;1.20;1.20;;;19.50;54.40;;;;;;5043771;28;20843;-69
2022/08/08 06:21:28;;;;;;;1.70;1.40;;;19.50;54.50;;;;;;5048801;28;20490;-69
2022/08/08 06:23:54;;;;;;;1.43;1.33;;;19.60;54.40;;;;;;5051947;28;20479;-69
2022/08/08 06:26:28;;;;;;;1.40;1.33;;;19.60;54.30;;;;;;5051908;28;20491;-69
2022/08/08 06:29:18;;;;;;;2.03;1.37;;;19.70;54.60;;;;;;5050747;28;20214;-69
2022/08/08 06:31:45;;;;;;;3.23;1.60;;;19.80;54.70;;;;;;5045162;28;20454;-69
2022/08/08 06:34:18;;;;;;;1.40;1.30;;;19.90;54.70;;;;;;5051396;28;21030;-67
2022/08/08 06:36:50;;;;;;;2.50;1.20;;;19.90;54.80;;;;;;5032334;28;20840;-68
2022/08/08 06:39:18;;;;;;;1.70;1.30;;;20.10;55.00;;;;;;5048536;28;20469;-70
2022/08/08 06:41:54;;;;;;;1.20;1.20;;;20.20;54.80;;;;;;5033272;28;20781;-69
2022/08/08 06:44:25;;;;;;;1.20;1.20;;;20.20;54.80;;;;;;5051353;28;20956;-69
2022/08/08 06:46:55;;;;;;;1.47;1.37;;;20.30;55.00;;;;;;5053035;28;20465;-69
2022/08/08 06:49:21;;;;;;;1.90;1.40;;;20.40;54.80;;;;;;5024728;28;20581;-69
2022/08/08 06:51:47;;;;;;;1.90;1.13;;;20.40;54.90;;;;;;5034093;28;20459;-69
2022/08/08 06:54:16;;;;;;;3.03;1.00;;;20.50;55.00;;;;;;5048575;28;20722;-69
2022/08/08 06:56:42;;;;;;;1.40;1.30;;;20.60;55.00;;;;;;5068115;28;20454;-69
2022/08/08 06:59:09;;;;;;;1.20;1.20;;;20.70;55.00;;;;;;5036310;28;20302;-69
2022/08/08 07:02:02;;;;;;;1.33;1.23;;;20.80;55.00;;;;;;5052131;28;20533;-70
2022/08/08 07:04:38;;;;;;;1.47;1.37;;;20.90;55.00;;;;;;5052768;28;20508;-69
2022/08/08 07:07:08;;;;;;;1.30;1.20;;;21.00;55.00;;;;;;5028400;28;20973;-69
2022/08/08 07:09:44;;;;;;;1.20;1.10;;;21.10;55.00;;;;;;5069365;28;20437;-68
2022/08/08 07:12:14;;;;;;;1.53;1.20;;;21.20;54.60;;;;;;5051631;28;20460;-70
2022/08/08 07:14:52;;;;;;;1.30;1.20;;;21.30;54.60;;;;;;5049644;28;20477;-69
2022/08/08 07:17:24;;;;;;;2.40;1.10;;;21.40;54.40;;;;;;5055665;28;20911;-69
2022/08/08 07:20:02;;;;;;;1.40;1.30;;;21.50;54.30;;;;;;5046182;28;20456;-69
2022/08/08 07:23:01;;;;;;;6.70;1.53;;;21.60;54.50;;;;;;5031745;28;20461;-69
2022/08/08 07:25:31;;;;;;;1.40;1.30;;;21.70;54.10;;;;;;5033898;28;20953;-69
2022/08/08 07:28:11;;;;;;;1.27;1.00;;;21.80;54.40;;;;;;5055315;28;20990;-69
2022/08/08 07:30:39;;;;;;;1.13;1.10;;;22.00;54.40;;;;;;5061068;28;20446;-69
2022/08/08 07:33:10;;;;;;;2.23;1.40;;;22.10;54.30;;;;;;5045745;28;20441;-69
2022/08/08 07:35:38;;;;;;;1.07;1.07;;;22.20;54.20;;;;;;5034636;28;20456;-67
2022/08/08 07:38:05;;;;;;;1.20;1.20;;;22.20;53.90;;;;;;5050131;28;20492;-69
2022/08/08 07:40:40;;;;;;;2.03;1.47;;;22.40;54.10;;;;;;5032645;28;20456;-68
2022/08/08 07:43:09;;;;;;;1.40;1.30;;;22.50;54.00;;;;;;5050960;28;21103;-69
2022/08/08 07:45:36;;;;;;;1.50;1.40;;;22.60;54.00;;;;;;5050595;28;20903;-69
2022/08/08 07:48:02;;;;;;;1.20;1.20;;;22.70;53.80;;;;;;5032770;28;20957;-70
2022/08/08 07:50:30;;;;;;;2.93;1.23;;;22.80;53.60;;;;;;5029737;28;20456;-69
2022/08/08 07:53:03;;;;;;;1.60;1.50;;;22.80;53.20;;;;;;5059049;28;20437;-69
2022/08/08 07:55:30;;;;;;;1.47;1.37;;;22.90;53.70;;;;;;5033249;28;20441;-69
2022/08/08 07:58:28;;;;;;;4.63;1.70;;;23.10;52.90;;;;;;5036146;28;20444;-69
2022/08/08 08:01:05;;;;;;;1.87;1.40;;;23.20;52.90;;;;;;5067637;28;20453;-69
2022/08/08 08:03:45;;;;;;;1.93;1.80;;;23.20;52.80;;;;;;5032511;28;20870;-68
2022/08/08 08:06:19;;;;;;;1.70;1.40;;;23.20;52.30;;;;;;5033937;28;20494;-69
2022/08/08 08:08:55;;;;;;;1.47;1.37;;;23.30;52.50;;;;;;5050114;28;20455;-69
2022/08/08 08:11:27;;;;;;;6.83;1.90;;;23.40;52.10;;;;;;5077125;28;20837;-69
2022/08/08 08:13:53;;;;;;;4.10;1.70;;;23.50;52.00;;;;;;5049003;28;20451;-69
2022/08/08 08:16:25;;;;;;;3.50;1.60;;;23.60;52.10;;;;;;5047494;28;20445;-69
2022/08/08 08:18:55;;;;;;;1.50;1.40;;;23.60;52.10;;;;;;5037926;28;20353;-69
2022/08/08 08:21:27;;;;;;;1.60;1.50;;;23.70;52.10;;;;;;5034331;28;20481;-70
2022/08/08 08:23:52;;;;;;;1.80;1.70;;;23.80;52.00;;;;;;5048893;28;20449;-69
2022/08/08 08:26:20;;;;;;;1.60;1.50;;;23.90;52.00;;;;;;5033922;28;21004;-69
2022/08/08 08:28:47;;;;;;;1.90;1.80;;;24.00;51.90;;;;;;5052327;28;20472;-69
2022/08/08 08:31:14;;;;;;;1.60;1.50;;;24.10;52.00;;;;;;5051726;28;20462;-69
2022/08/08 08:33:40;;;;;;;1.80;1.70;;;24.20;52.00;;;;;;5032771;28;20457;-69
2022/08/08 08:36:08;;;;;;;1.80;1.70;;;24.30;52.30;;;;;;5050454;28;20457;-69
2022/08/08 08:38:36;;;;;;;1.40;1.30;;;24.30;52.00;;;;;;5033370;28;20453;-69
2022/08/08 08:41:10;;;;;;;1.73;1.63;;;24.40;51.80;;;;;;5049309;28;20516;-69
2022/08/08 08:43:38;;;;;;;3.10;1.40;;;24.60;51.70;;;;;;5032964;28;20476;-70
2022/08/08 08:46:08;;;;;;;1.63;1.53;;;24.60;51.60;;;;;;5049052;28;20461;-69
2022/08/08 08:48:34;;;;;;;1.67;1.57;;;24.70;51.60;;;;;;5023265;28;20788;-69
2022/08/08 08:51:02;;;;;;;2.20;2.00;;;24.80;51.70;;;;;;5039495;28;20489;-69
2022/08/08 08:53:35;;;;;;;7.53;1.77;;;24.90;51.50;;;;;;5049665;28;20218;-70
2022/08/08 08:56:13;;;;;;;1.63;1.53;;;24.90;51.50;;;;;;5032539;28;20549;-69
2022/08/08 08:58:44;;;;;;;1.90;1.80;;;25.00;51.50;;;;;;5043577;28;20453;-69
2022/08/08 09:01:15;;;;;;;1.63;1.50;;;25.10;51.30;;;;;;5042927;28;20449;-69
2022/08/08 09:03:46;;;;;;;2.73;1.63;;;25.20;51.20;;;;;;5048357;28;20441;-69
2022/08/08 09:06:16;;;;;;;1.87;1.77;;;25.20;50.80;;;;;;5060696;28;20464;-69
2022/08/08 09:08:45;;;;;;;1.70;1.60;;;25.30;50.90;;;;;;5068514;28;20872;-69
2022/08/08 09:11:14;;;;;;;1.80;1.70;;;25.50;50.90;;;;;;5026092;28;20541;-69
2022/08/08 09:13:43;;;;;;;3.33;1.73;;;25.60;50.80;;;;;;5039393;28;20446;-69
2022/08/08 09:16:09;;;;;;;1.80;1.70;;;25.50;50.40;;;;;;5031180;28;20464;-69
2022/08/08 09:18:35;;;;;;;2.47;1.70;;;25.60;50.70;;;;;;5087092;28;20484;-69
2022/08/08 09:21:02;;;;;;;1.50;1.40;;;25.70;50.60;;;;;;5037916;28;20488;-69
2022/08/08 09:23:29;;;;;;;1.73;1.63;;;25.80;50.50;;;;;;5050420;28;20230;-69
2022/08/08 09:26:02;;;;;;;1.80;1.70;;;25.80;50.30;;;;;;5053020;28;20885;-70
2022/08/08 09:28:36;;;;;;;1.73;1.63;;;25.80;50.00;;;;;;5069755;28;20502;-69
2022/08/08 09:31:06;;;;;;;2.60;1.70;;;25.90;50.40;;;;;;5036070;28;20453;-69
2022/08/08 09:33:34;;;;;;;1.63;1.53;;;26.00;50.40;;;;;;5051777;28;20449;-69
2022/08/08 09:36:00;;;;;;;1.70;1.60;;;26.00;50.60;;;;;;5053102;28;20518;-69
2022/08/08 09:38:46;;;;;;;2.07;1.87;;;26.10;50.20;;;;;;5064714;28;20453;-69
2022/08/08 09:41:16;;;;;;;1.67;1.50;;;26.30;50.00;;;;;;5025410;28;20486;-69
2022/08/08 09:43:49;;;;;;;1.70;1.60;;;26.40;49.90;;;;;;5043667;28;20524;-69
2022/08/08 09:46:16;;;;;;;2.10;2.00;;;26.50;49.60;;;;;;5032178;28;20880;-69
2022/08/08 09:48:44;;;;;;;1.70;1.60;;;26.50;49.70;;;;;;5035927;28;20461;-69
2022/08/08 09:51:14;;;;;;;1.70;1.60;;;26.60;49.60;;;;;;5065532;28;20474;-69
2022/08/08 09:53:52;;;;;;;1.70;1.60;;;26.60;49.50;;;;;;5035657;28;20888;-70
2022/08/08 09:56:20;;;;;;;1.83;1.73;;;26.50;49.40;;;;;;5067790;28;20457;-70
2022/08/08 09:58:54;;;;;;;3.77;1.63;;;26.50;49.20;;;;;;5052948;28;20461;-70
2022/08/08 10:01:22;;;;;;;1.70;1.60;;;26.50;49.70;;;;;;5050457;28;20450;-69
2022/08/08 10:03:49;;;;;;;1.73;1.60;;;26.60;49.30;;;;;;5046046;28;20500;-70
2022/08/08 10:06:16;;;;;;;1.50;1.47;;;26.60;49.10;;;;;;5070237;28;20466;-69
2022/08/08 10:08:47;;;;;;;2.20;2.10;;;26.70;49.40;;;;;;5045704;28;20448;-69
2022/08/08 10:11:17;;;;;;;4.10;1.70;;;26.80;49.40;;;;;;5052280;28;20473;-69
2022/08/08 10:14:12;;;;;;;1.80;1.70;;;27.00;49.30;;;;;;5052049;28;20449;-70
2022/08/08 10:16:42;;;;;;;2.03;1.93;;;26.90;48.60;;;;;;5052189;28;20453;-69
2022/08/08 10:19:12;;;;;;;1.47;1.40;;;27.10;48.60;;;;;;5052898;28;20475;-69
2022/08/08 10:21:38;;;;;;;1.63;1.53;;;27.20;48.60;;;;;;5035664;28;20472;-69
2022/08/08 10:24:06;;;;;;;1.80;1.70;;;27.20;48.60;;;;;;5051829;28;20487;-70
2022/08/08 10:26:35;;;;;;;1.80;1.70;;;27.20;48.60;;;;;;5031056;28;20468;-70
2022/08/08 10:29:04;;;;;;;1.73;1.63;;;27.30;48.60;;;;;;5050786;28;20483;-69
2022/08/08 10:34:20;;;;;;;2.13;1.90;;;27.50;48.80;;;;;;5044472;28;20231;-69
2022/08/08 10:36:47;;;;;;;1.83;1.73;;;27.70;48.30;;;;;;5042302;28;20536;-69
2022/08/08 10:39:21;;;;;;;2.10;2.00;;;27.70;48.10;;;;;;5069605;28;20263;-70
2022/08/08 10:42:08;;;;;;;2.00;1.80;;;27.70;48.50;;;;;;5031621;28;20253;-68
2022/08/08 10:44:39;;;;;;;3.80;1.80;;;27.70;47.80;;;;;;5065751;28;20240;-69
2022/08/08 10:47:10;;;;;;;1.90;1.80;;;27.80;47.80;;;;;;5070668;28;20249;-70
2022/08/08 10:49:36;;;;;;;2.07;1.97;;;27.90;47.90;;;;;;5063081;28;20314;-69
2022/08/08 10:52:03;;;;;;;1.80;1.70;;;27.70;47.50;;;;;;5040940;28;20298;-71
2022/08/08 10:54:28;;;;;;;2.83;1.90;;;27.80;47.90;;;;;;5050552;28;20677;-70
2022/08/08 10:56:59;;;;;;;1.90;1.80;;;28.10;48.10;;;;;;5069715;28;20242;-70
2022/08/08 10:59:25;;;;;;;1.87;1.77;;;28.10;47.70;;;;;;5051422;28;20223;-70
2022/08/08 11:01:51;;;;;;;1.77;1.67;;;28.20;47.90;;;;;;5064680;28;20227;-70
2022/08/08 11:04:17;;;;;;;1.83;1.73;;;28.30;47.70;;;;;;5050456;28;20221;-70
2022/08/08 11:06:43;;;;;;;2.47;1.85;;;28.50;47.70;;;;;;5070399;28;20231;-70
2022/08/08 11:09:11;;;;;;;1.90;1.80;;;28.50;47.40;;;;;;5070227;28;20282;-69
2022/08/08 11:11:44;;;;;;;2.00;1.90;;;28.30;47.10;;;;;;5061534;28;20235;-69
2022/08/08 11:14:13;;;;;;;1.88;1.77;;;28.40;47.10;;;;;;5051212;28;20227;-69
2022/08/08 11:16:44;;;;;;;1.95;1.77;;;28.50;47.20;;;;;;5049955;28;20730;-69
2022/08/08 11:19:10;;;;;;;1.80;1.70;;;28.40;47.20;;;;;;5054864;28;20227;-70
2022/08/08 11:21:44;;;;;;;2.13;1.90;;;28.50;47.20;;;;;;5047163;28;20241;-70
2022/08/08 11:24:10;;;;;;;1.77;1.67;;;28.50;47.00;;;;;;5055974;28;20237;-70
2022/08/08 11:26:40;;;;;;;1.65;1.55;;;28.50;47.10;;;;;;5050013;28;20240;-70
2022/08/08 11:29:07;;;;;;;1.63;1.52;;;28.60;47.00;;;;;;5068644;28;20260;-70
2022/08/08 11:31:45;;;;;;;2.90;1.40;;;28.70;47.40;;;;;;5034008;28;20271;-69
2022/08/08 11:34:12;;;;;;;1.90;1.80;;;29.00;47.50;;;;;;5049841;28;20475;-70
2022/08/08 11:36:38;;;;;;;2.30;2.10;;;29.30;46.80;;;;;;5049879;28;20224;-69
2022/08/08 11:39:07;;;;;;;2.42;2.00;;;29.40;46.90;;;;;;5038807;28;20286;-70
2022/08/08 11:41:35;;;;;;;2.10;1.90;;;29.30;46.40;;;;;;5068139;28;20233;-69
2022/08/08 11:44:02;;;;;;;2.08;1.98;;;29.30;46.70;;;;;;5042373;28;20713;-70
2022/08/08 11:46:29;;;;;;;2.35;2.15;;;29.30;46.60;;;;;;5050262;28;20354;-70
2022/08/08 11:48:55;;;;;;;1.95;1.85;;;29.30;46.50;;;;;;5061609;28;20246;-70
2022/08/08 11:51:22;;;;;;;1.63;1.52;;;29.30;46.40;;;;;;5047196;28;20259;-70
2022/08/08 11:53:49;;;;;;;1.92;1.83;;;29.10;46.50;;;;;;5043541;28;20221;-70
2022/08/08 11:56:19;;;;;;;1.90;1.80;;;29.20;46.70;;;;;;5068898;28;20229;-70
2022/08/08 11:58:46;;;;;;;1.70;1.60;;;29.40;47.00;;;;;;5068812;28;20222;-70
2022/08/08 12:01:12;;;;;;;1.85;1.75;;;29.60;46.80;;;;;;5032479;28;20704;-69
2022/08/08 12:03:46;;;;;;;2.22;2.03;;;29.80;46.90;;;;;;5048595;28;20238;-70
2022/08/08 12:06:14;;;;;;;2.08;1.92;;;29.90;46.60;;;;;;5033088;28;20741;-70
2022/08/08 12:08:40;;;;;;;2.03;1.80;;;29.90;46.10;;;;;;5031529;28;20230;-69
2022/08/08 12:11:14;;;;;;;1.60;1.50;;;29.80;46.20;;;;;;5047661;28;20656;-70
2022/08/08 12:13:41;;;;;;;2.17;2.08;;;29.80;46.20;;;;;;5058187;28;20222;-69
2022/08/08 12:16:15;;;;;;;1.98;1.88;;;29.80;45.70;;;;;;5046566;28;20301;-70
2022/08/08 12:18:49;;;;;;;1.83;1.45;;;29.80;45.50;;;;;;5067890;28;20225;-70
2022/08/08 12:21:26;;;;;;;1.50;1.50;;;29.80;45.50;;;;;;5049511;28;20239;-70
2022/08/08 12:24:08;;;;;;;1.73;1.63;;;29.90;45.50;;;;;;5032581;28;20718;-70
2022/08/08 12:26:45;;;;;;;2.00;1.80;;;29.90;45.50;;;;;;5068216;28;20234;-69
2022/08/08 12:29:33;;;;;;;1.63;1.60;;;30.00;46.00;;;;;;5062244;28;20228;-69
2022/08/08 12:32:13;;;;;;;2.75;1.83;;;30.20;45.70;;;;;;5049699;28;20230;-70
2022/08/08 12:34:45;;;;;;;1.80;1.70;;;30.40;45.20;;;;;;5084049;28;20644;-70
2022/08/08 12:37:25;;;;;;;2.13;1.92;;;30.50;45.60;;;;;;5050280;28;20228;-71
2022/08/08 12:39:54;;;;;;;2.15;1.73;;;30.60;45.50;;;;;;5051363;28;20311;-70
2022/08/08 12:42:20;;;;;;;2.15;1.85;;;30.70;45.40;;;;;;5066708;28;20231;-70
2022/08/08 12:44:46;;;;;;;2.22;2.13;;;30.40;45.20;;;;;;5066000;28;20234;-70
2022/08/08 12:47:15;;;;;;;2.15;1.95;;;30.30;45.20;;;;;;5045627;28;20329;-70
2022/08/08 12:49:44;;;;;;;2.00;1.90;;;30.20;44.80;;;;;;5033899;28;20238;-70
2022/08/08 12:52:19;;;;;;;1.92;1.83;;;30.10;45.00;;;;;;5035465;28;20321;-70
2022/08/08 12:54:45;;;;;;;4.30;1.80;;;30.20;45.00;;;;;;5052155;28;20696;-70
2022/08/08 12:57:22;;;;;;;1.73;1.63;;;30.30;45.20;;;;;;5053171;28;20307;-70
2022/08/08 12:59:53;;;;;;;1.88;1.77;;;30.50;45.00;;;;;;5054286;28;20239;-70
2022/08/08 13:02:29;;;;;;;1.63;1.52;;;30.60;45.30;;;;;;5070669;28;20286;-70
2022/08/08 13:04:57;;;;;;;2.92;2.20;;;30.80;45.10;;;;;;5031507;28;20277;-69
2022/08/08 13:07:52;;;;;;;2.00;1.90;;;31.00;45.20;;;;;;5045267;28;20716;-70
2022/08/08 13:10:19;;;;;;;1.92;1.70;;;31.00;44.90;;;;;;5032818;28;20226;-70
2022/08/08 13:12:47;;;;;;;2.00;1.90;;;30.80;44.50;;;;;;5064810;28;20236;-70
2022/08/08 13:15:15;;;;;;;1.92;1.83;;;30.80;44.60;;;;;;5035453;28;20229;-70
2022/08/08 13:17:42;;;;;;;2.13;2.03;;;30.70;44.70;;;;;;5050384;28;20229;-69
2022/08/08 13:20:16;;;;;;;1.75;1.60;;;30.70;44.90;;;;;;5049251;28;20717;-70
2022/08/08 13:22:43;;;;;;;1.85;1.65;;;30.70;44.70;;;;;;5044609;28;20771;-69
2022/08/08 13:25:19;;;;;;;1.88;1.77;;;30.90;45.40;;;;;;5053249;28;20247;-70